sensor_id;sensor_type;location;lat;lon;timestamp;temperature;humidity
55812;DHT22;41742;52.048;6.092;2022-11-20T00:00:46;-2.20;99.90
55812;DHT22;41742;52.048;6.092;2022-11-20T00:03:12;-2.30;99.90
55812;DHT22;41742;52.048;6.092;2022-11-20T00:05:38;-2.30;99.90
55812;DHT22;41742;52.048;6.092;2022-11-20T00:08:04;-2.50;99.90
55812;DHT22;41742;52.048;6.092;2022-11-20T00:10:29;-2.50;99.90
55812;DHT22;41742;52.048;6.092;2022-11-20T00:12:57;-2.40;99.90
55812;DHT22;41742;52.048;6.092;2022-11-20T00:15:22;-2.20;99.90
55812;DHT22;41742;52.048;6.092;2022-11-20T00:17:48;-2.30;99.90
55812;DHT22;41742;52.048;6.092;2022-11-20T00:20:14;-2.30;99.90
55812;DHT22;41742;52.048;6.092;2022-11-20T00:22:39;-2.20;99.90
55812;DHT22;41742;52.048;6.092;2022-11-20T00:25:05;-2.10;99.90
55812;DHT22;41742;52.048;6.092;2022-11-20T00:27:31;-2.30;99.90
55812;DHT22;41742;52.048;6.092;2022-11-20T00:29:56;-2.40;99.90
55812;DHT22;41742;52.048;6.092;2022-11-20T00:32:22;-2.40;99.90
55812;DHT22;41742;52.048;6.092;2022-11-20T00:34:47;-2.40;99.90
55812;DHT22;41742;52.048;6.092;2022-11-20T00:37:13;-2.20;99.90
55812;DHT22;41742;52.048;6.092;2022-11-20T00:39:38;-2.10;99.90
55812;DHT22;41742;52.048;6.092;2022-11-20T00:42:04;-2.30;99.90
55812;DHT22;41742;52.048;6.092;2022-11-20T00:44:30;-2.30;99.90
55812;DHT22;41742;52.048;6.092;2022-11-20T00:46:55;-2.50;99.90
55812;DHT22;41742;52.048;6.092;2022-11-20T00:49:21;-2.60;99.90
55812;DHT22;41742;52.048;6.092;2022-11-20T00:51:46;-2.60;99.90
55812;DHT22;41742;52.048;6.092;2022-11-20T00:54:12;-2.60;99.90
55812;DHT22;41742;52.048;6.092;2022-11-20T00:56:38;-2.60;99.90
55812;DHT22;41742;52.048;6.092;2022-11-20T00:59:03;-2.70;99.90
55812;DHT22;41742;52.048;6.092;2022-11-20T01:01:29;-2.60;99.90
55812;DHT22;41742;52.048;6.092;2022-11-20T01:03:58;-2.60;99.90
55812;DHT22;41742;52.048;6.092;2022-11-20T01:06:26;-2.80;99.90
55812;DHT22;41742;52.048;6.092;2022-11-20T01:08:55;-2.90;99.90
55812;DHT22;41742;52.048;6.092;2022-11-20T01:11:29;-2.70;99.90
55812;DHT22;41742;52.048;6.092;2022-11-20T01:13:57;-2.60;99.90
55812;DHT22;41742;52.048;6.092;2022-11-20T01:16:24;-2.60;99.90
55812;DHT22;41742;52.048;6.092;2022-11-20T01:18:53;-2.60;99.90
55812;DHT22;41742;52.048;6.092;2022-11-20T01:21:21;-2.70;99.90
55812;DHT22;41742;52.048;6.092;2022-11-20T01:23:48;-2.80;99.90
55812;DHT22;41742;52.048;6.092;2022-11-20T01:26:17;-2.90;99.90
55812;DHT22;41742;52.048;6.092;2022-11-20T01:28:43;-3.00;99.90
55812;DHT22;41742;52.048;6.092;2022-11-20T01:33:41;-2.60;99.90
55812;DHT22;41742;52.048;6.092;2022-11-20T01:36:07;-2.70;99.90
55812;DHT22;41742;52.048;6.092;2022-11-20T01:38:33;-2.50;99.90
55812;DHT22;41742;52.048;6.092;2022-11-20T01:40:59;-2.60;99.90
55812;DHT22;41742;52.048;6.092;2022-11-20T01:43:25;-2.60;99.90
55812;DHT22;41742;52.048;6.092;2022-11-20T01:51:15;-2.90;99.90
55812;DHT22;41742;52.048;6.092;2022-11-20T01:53:42;-2.80;99.90
55812;DHT22;41742;52.048;6.092;2022-11-20T01:56:10;-2.80;99.90
55812;DHT22;41742;52.048;6.092;2022-11-20T01:58:39;-2.80;99.90
55812;DHT22;41742;52.048;6.092;2022-11-20T02:01:05;-2.80;99.90
55812;DHT22;41742;52.048;6.092;2022-11-20T02:03:31;-2.80;99.90
55812;DHT22;41742;52.048;6.092;2022-11-20T02:08:32;-2.70;99.90
55812;DHT22;41742;52.048;6.092;2022-11-20T02:10:58;-2.70;99.90
55812;DHT22;41742;52.048;6.092;2022-11-20T02:13:23;-2.80;99.90
55812;DHT22;41742;52.048;6.092;2022-11-20T02:16:27;-3.00;99.90
55812;DHT22;41742;52.048;6.092;2022-11-20T02:18:55;-3.00;99.90
55812;DHT22;41742;52.048;6.092;2022-11-20T02:21:46;-2.90;99.90
55812;DHT22;41742;52.048;6.092;2022-11-20T02:24:18;-2.80;99.90
55812;DHT22;41742;52.048;6.092;2022-11-20T02:26:57;-2.90;99.90
55812;DHT22;41742;52.048;6.092;2022-11-20T02:29:48;-3.00;99.90
55812;DHT22;41742;52.048;6.092;2022-11-20T02:32:23;-3.00;99.90
55812;DHT22;41742;52.048;6.092;2022-11-20T02:34:49;-3.00;99.90
55812;DHT22;41742;52.048;6.092;2022-11-20T02:37:15;-3.00;99.90
55812;DHT22;41742;52.048;6.092;2022-11-20T02:39:42;-3.20;99.90
55812;DHT22;41742;52.048;6.092;2022-11-20T02:42:08;-3.20;99.90
55812;DHT22;41742;52.048;6.092;2022-11-20T02:44:34;-3.30;99.90
55812;DHT22;41742;52.048;6.092;2022-11-20T02:46:59;-3.40;99.90
55812;DHT22;41742;52.048;6.092;2022-11-20T02:49:25;-3.40;99.90
55812;DHT22;41742;52.048;6.092;2022-11-20T02:51:51;-3.40;99.90
55812;DHT22;41742;52.048;6.092;2022-11-20T02:54:16;-3.30;99.90
55812;DHT22;41742;52.048;6.092;2022-11-20T02:56:42;-3.30;99.90
55812;DHT22;41742;52.048;6.092;2022-11-20T02:59:09;-3.30;99.90
55812;DHT22;41742;52.048;6.092;2022-11-20T03:01:35;-3.30;99.90
55812;DHT22;41742;52.048;6.092;2022-11-20T03:04:01;-3.40;99.90
55812;DHT22;41742;52.048;6.092;2022-11-20T03:06:27;-3.40;99.90
55812;DHT22;41742;52.048;6.092;2022-11-20T03:08:53;-3.30;99.90
55812;DHT22;41742;52.048;6.092;2022-11-20T03:11:18;-3.20;99.90
55812;DHT22;41742;52.048;6.092;2022-11-20T03:13:44;-3.20;99.90
55812;DHT22;41742;52.048;6.092;2022-11-20T03:16:12;-3.40;99.90
55812;DHT22;41742;52.048;6.092;2022-11-20T03:18:38;-3.50;99.90
55812;DHT22;41742;52.048;6.092;2022-11-20T03:21:04;-3.40;99.90
55812;DHT22;41742;52.048;6.092;2022-11-20T03:23:31;-3.50;99.90
55812;DHT22;41742;52.048;6.092;2022-11-20T03:26:14;-3.60;99.90
55812;DHT22;41742;52.048;6.092;2022-11-20T03:28:42;-3.60;99.90
55812;DHT22;41742;52.048;6.092;2022-11-20T03:31:13;-3.40;99.90
55812;DHT22;41742;52.048;6.092;2022-11-20T03:33:40;-3.30;99.90
55812;DHT22;41742;52.048;6.092;2022-11-20T03:36:09;-3.40;99.90
55812;DHT22;41742;52.048;6.092;2022-11-20T03:38:35;-3.40;99.90
55812;DHT22;41742;52.048;6.092;2022-11-20T03:41:05;-3.20;99.90
55812;DHT22;41742;52.048;6.092;2022-11-20T03:43:32;-3.30;99.90
55812;DHT22;41742;52.048;6.092;2022-11-20T03:45:58;-3.30;99.90
55812;DHT22;41742;52.048;6.092;2022-11-20T03:48:24;-3.40;99.90
55812;DHT22;41742;52.048;6.092;2022-11-20T03:50:50;-3.60;99.90
55812;DHT22;41742;52.048;6.092;2022-11-20T03:53:16;-3.50;99.90
55812;DHT22;41742;52.048;6.092;2022-11-20T03:55:42;-3.40;99.90
55812;DHT22;41742;52.048;6.092;2022-11-20T03:58:08;-3.50;99.90
55812;DHT22;41742;52.048;6.092;2022-11-20T04:00:34;-3.60;99.90
55812;DHT22;41742;52.048;6.092;2022-11-20T04:03:00;-3.50;99.90
55812;DHT22;41742;52.048;6.092;2022-11-20T04:05:26;-3.50;99.90
55812;DHT22;41742;52.048;6.092;2022-11-20T04:07:52;-3.60;99.90
55812;DHT22;41742;52.048;6.092;2022-11-20T04:10:17;-3.70;99.90
55812;DHT22;41742;52.048;6.092;2022-11-20T04:12:43;-3.70;99.90
55812;DHT22;41742;52.048;6.092;2022-11-20T04:15:09;-3.70;99.90
55812;DHT22;41742;52.048;6.092;2022-11-20T04:17:34;-3.60;99.90
55812;DHT22;41742;52.048;6.092;2022-11-20T04:20:00;-3.40;99.90
55812;DHT22;41742;52.048;6.092;2022-11-20T04:22:26;-3.30;99.90
55812;DHT22;41742;52.048;6.092;2022-11-20T04:24:51;-3.50;99.90
55812;DHT22;41742;52.048;6.092;2022-11-20T04:27:17;-3.60;99.90
55812;DHT22;41742;52.048;6.092;2022-11-20T04:29:43;-3.60;99.90
55812;DHT22;41742;52.048;6.092;2022-11-20T04:32:08;-3.50;99.90
55812;DHT22;41742;52.048;6.092;2022-11-20T04:34:34;-3.40;99.90
55812;DHT22;41742;52.048;6.092;2022-11-20T04:37:00;-3.40;99.90
55812;DHT22;41742;52.048;6.092;2022-11-20T04:39:26;-3.50;99.90
55812;DHT22;41742;52.048;6.092;2022-11-20T04:41:51;-3.50;99.90
55812;DHT22;41742;52.048;6.092;2022-11-20T04:44:36;-3.50;99.90
55812;DHT22;41742;52.048;6.092;2022-11-20T04:47:01;-3.40;99.90
55812;DHT22;41742;52.048;6.092;2022-11-20T04:49:27;-3.40;99.90
55812;DHT22;41742;52.048;6.092;2022-11-20T04:51:53;-3.30;99.90
55812;DHT22;41742;52.048;6.092;2022-11-20T04:54:19;-3.30;99.90
55812;DHT22;41742;52.048;6.092;2022-11-20T04:56:47;-3.60;99.90
55812;DHT22;41742;52.048;6.092;2022-11-20T04:59:13;-3.80;99.90
55812;DHT22;41742;52.048;6.092;2022-11-20T05:01:39;-3.60;99.90
55812;DHT22;41742;52.048;6.092;2022-11-20T05:04:05;-3.50;99.90
55812;DHT22;41742;52.048;6.092;2022-11-20T05:06:31;-3.50;99.90
55812;DHT22;41742;52.048;6.092;2022-11-20T05:08:57;-3.60;99.90
55812;DHT22;41742;52.048;6.092;2022-11-20T05:11:23;-3.70;99.90
55812;DHT22;41742;52.048;6.092;2022-11-20T05:13:51;-3.80;99.90
55812;DHT22;41742;52.048;6.092;2022-11-20T05:16:21;-3.80;99.90
55812;DHT22;41742;52.048;6.092;2022-11-20T05:18:48;-3.90;99.90
55812;DHT22;41742;52.048;6.092;2022-11-20T05:21:14;-4.00;99.90
55812;DHT22;41742;52.048;6.092;2022-11-20T05:23:40;-4.10;99.90
55812;DHT22;41742;52.048;6.092;2022-11-20T05:26:08;-4.10;99.90
55812;DHT22;41742;52.048;6.092;2022-11-20T05:28:37;-3.90;99.90
55812;DHT22;41742;52.048;6.092;2022-11-20T05:31:14;-3.80;99.90
55812;DHT22;41742;52.048;6.092;2022-11-20T05:33:40;-3.80;99.90
55812;DHT22;41742;52.048;6.092;2022-11-20T05:36:07;-3.70;99.90
55812;DHT22;41742;52.048;6.092;2022-11-20T05:38:33;-3.60;99.90
55812;DHT22;41742;52.048;6.092;2022-11-20T05:41:06;-3.50;99.90
55812;DHT22;41742;52.048;6.092;2022-11-20T05:43:34;-3.50;99.90
55812;DHT22;41742;52.048;6.092;2022-11-20T05:46:00;-3.60;99.90
55812;DHT22;41742;52.048;6.092;2022-11-20T05:48:26;-3.50;99.90
55812;DHT22;41742;52.048;6.092;2022-11-20T05:50:51;-3.60;99.90
55812;DHT22;41742;52.048;6.092;2022-11-20T05:53:17;-3.80;99.90
55812;DHT22;41742;52.048;6.092;2022-11-20T05:55:42;-3.90;99.90
55812;DHT22;41742;52.048;6.092;2022-11-20T05:58:08;-4.20;99.90
55812;DHT22;41742;52.048;6.092;2022-11-20T06:00:34;-4.20;99.90
55812;DHT22;41742;52.048;6.092;2022-11-20T06:02:59;-4.00;99.90
55812;DHT22;41742;52.048;6.092;2022-11-20T06:05:25;-3.80;99.90
55812;DHT22;41742;52.048;6.092;2022-11-20T06:07:50;-3.80;99.90
55812;DHT22;41742;52.048;6.092;2022-11-20T06:10:16;-3.70;99.90
55812;DHT22;41742;52.048;6.092;2022-11-20T06:12:41;-3.90;99.90
55812;DHT22;41742;52.048;6.092;2022-11-20T06:15:07;-4.00;99.90
55812;DHT22;41742;52.048;6.092;2022-11-20T06:17:34;-3.90;99.90
55812;DHT22;41742;52.048;6.092;2022-11-20T06:19:59;-4.00;99.90
55812;DHT22;41742;52.048;6.092;2022-11-20T06:22:25;-4.20;99.90
55812;DHT22;41742;52.048;6.092;2022-11-20T06:24:50;-4.10;99.90
55812;DHT22;41742;52.048;6.092;2022-11-20T06:27:16;-4.10;99.90
55812;DHT22;41742;52.048;6.092;2022-11-20T06:29:42;-4.00;99.90
55812;DHT22;41742;52.048;6.092;2022-11-20T06:32:07;-3.80;99.90
55812;DHT22;41742;52.048;6.092;2022-11-20T06:34:33;-3.80;99.90
55812;DHT22;41742;52.048;6.092;2022-11-20T06:36:59;-4.00;99.90
55812;DHT22;41742;52.048;6.092;2022-11-20T06:39:24;-4.00;99.90
55812;DHT22;41742;52.048;6.092;2022-11-20T06:41:50;-4.00;99.90
55812;DHT22;41742;52.048;6.092;2022-11-20T06:44:15;-4.00;99.90
55812;DHT22;41742;52.048;6.092;2022-11-20T06:46:41;-4.10;99.90
55812;DHT22;41742;52.048;6.092;2022-11-20T06:49:06;-4.00;99.90
55812;DHT22;41742;52.048;6.092;2022-11-20T06:51:32;-4.00;99.90
55812;DHT22;41742;52.048;6.092;2022-11-20T06:53:57;-4.00;99.90
55812;DHT22;41742;52.048;6.092;2022-11-20T06:56:23;-4.10;99.90
55812;DHT22;41742;52.048;6.092;2022-11-20T06:58:49;-4.30;99.90
55812;DHT22;41742;52.048;6.092;2022-11-20T07:01:15;-4.20;99.90
55812;DHT22;41742;52.048;6.092;2022-11-20T07:03:41;-4.00;99.90
55812;DHT22;41742;52.048;6.092;2022-11-20T07:06:07;-3.90;99.90
55812;DHT22;41742;52.048;6.092;2022-11-20T07:08:33;-4.10;99.90
55812;DHT22;41742;52.048;6.092;2022-11-20T07:11:00;-4.00;99.90
55812;DHT22;41742;52.048;6.092;2022-11-20T07:13:28;-3.90;99.90
55812;DHT22;41742;52.048;6.092;2022-11-20T07:15:54;-3.80;99.90
55812;DHT22;41742;52.048;6.092;2022-11-20T07:18:20;-3.80;99.90
55812;DHT22;41742;52.048;6.092;2022-11-20T07:20:45;-4.00;99.90
55812;DHT22;41742;52.048;6.092;2022-11-20T07:23:11;-4.10;99.90
55812;DHT22;41742;52.048;6.092;2022-11-20T07:25:36;-4.10;99.90
55812;DHT22;41742;52.048;6.092;2022-11-20T07:28:02;-3.90;99.90
55812;DHT22;41742;52.048;6.092;2022-11-20T07:30:29;-3.80;99.90
55812;DHT22;41742;52.048;6.092;2022-11-20T07:32:55;-3.80;99.90
55812;DHT22;41742;52.048;6.092;2022-11-20T07:35:22;-3.80;99.90
55812;DHT22;41742;52.048;6.092;2022-11-20T07:37:48;-3.70;99.90
55812;DHT22;41742;52.048;6.092;2022-11-20T07:40:15;-3.60;99.90
55812;DHT22;41742;52.048;6.092;2022-11-20T07:42:50;-3.60;99.90
55812;DHT22;41742;52.048;6.092;2022-11-20T07:45:20;-3.60;99.90
55812;DHT22;41742;52.048;6.092;2022-11-20T07:47:47;-3.50;99.90
55812;DHT22;41742;52.048;6.092;2022-11-20T07:50:13;-3.50;99.90
55812;DHT22;41742;52.048;6.092;2022-11-20T07:52:39;-3.60;99.90
55812;DHT22;41742;52.048;6.092;2022-11-20T07:55:05;-3.70;99.90
55812;DHT22;41742;52.048;6.092;2022-11-20T07:57:30;-3.70;99.90
55812;DHT22;41742;52.048;6.092;2022-11-20T07:59:56;-3.60;99.90
55812;DHT22;41742;52.048;6.092;2022-11-20T08:02:22;-3.50;99.90
55812;DHT22;41742;52.048;6.092;2022-11-20T08:04:47;-3.40;99.90
55812;DHT22;41742;52.048;6.092;2022-11-20T08:07:13;-3.40;99.90
55812;DHT22;41742;52.048;6.092;2022-11-20T08:09:39;-3.30;99.90
55812;DHT22;41742;52.048;6.092;2022-11-20T08:12:05;-3.40;99.90
55812;DHT22;41742;52.048;6.092;2022-11-20T08:14:49;-3.40;99.90
55812;DHT22;41742;52.048;6.092;2022-11-20T08:17:14;-3.40;99.90
55812;DHT22;41742;52.048;6.092;2022-11-20T08:19:40;-3.30;99.90
55812;DHT22;41742;52.048;6.092;2022-11-20T08:22:06;-3.30;99.90
55812;DHT22;41742;52.048;6.092;2022-11-20T08:24:31;-3.20;99.90
55812;DHT22;41742;52.048;6.092;2022-11-20T08:26:58;-3.00;99.90
55812;DHT22;41742;52.048;6.092;2022-11-20T08:29:25;-3.00;99.90
55812;DHT22;41742;52.048;6.092;2022-11-20T08:31:51;-3.00;99.90
55812;DHT22;41742;52.048;6.092;2022-11-20T08:34:17;-2.90;99.90
55812;DHT22;41742;52.048;6.092;2022-11-20T08:36:42;-2.90;99.90
55812;DHT22;41742;52.048;6.092;2022-11-20T08:39:11;-2.80;99.90
55812;DHT22;41742;52.048;6.092;2022-11-20T08:41:37;-2.80;99.90
55812;DHT22;41742;52.048;6.092;2022-11-20T08:44:04;-2.70;99.90
55812;DHT22;41742;52.048;6.092;2022-11-20T08:46:37;-2.60;99.90
55812;DHT22;41742;52.048;6.092;2022-11-20T08:49:04;-2.60;99.90
55812;DHT22;41742;52.048;6.092;2022-11-20T08:51:32;-2.50;99.90
55812;DHT22;41742;52.048;6.092;2022-11-20T08:53:57;-2.50;99.90
55812;DHT22;41742;52.048;6.092;2022-11-20T08:56:23;-2.40;99.90
55812;DHT22;41742;52.048;6.092;2022-11-20T08:58:50;-2.40;99.90
55812;DHT22;41742;52.048;6.092;2022-11-20T09:01:20;-2.30;99.90
55812;DHT22;41742;52.048;6.092;2022-11-20T09:03:46;-2.20;99.90
55812;DHT22;41742;52.048;6.092;2022-11-20T09:06:12;-2.20;99.90
55812;DHT22;41742;52.048;6.092;2022-11-20T09:08:38;-2.10;99.90
55812;DHT22;41742;52.048;6.092;2022-11-20T09:11:04;-2.00;99.90
55812;DHT22;41742;52.048;6.092;2022-11-20T09:13:30;-1.90;99.90
55812;DHT22;41742;52.048;6.092;2022-11-20T09:16:01;-1.80;99.90
55812;DHT22;41742;52.048;6.092;2022-11-20T09:18:28;-1.70;99.90
55812;DHT22;41742;52.048;6.092;2022-11-20T09:21:01;-1.70;99.90
55812;DHT22;41742;52.048;6.092;2022-11-20T09:23:31;-1.60;99.90
55812;DHT22;41742;52.048;6.092;2022-11-20T09:25:57;-1.60;99.90
55812;DHT22;41742;52.048;6.092;2022-11-20T09:38:55;-1.40;99.90
55812;DHT22;41742;52.048;6.092;2022-11-20T09:50:30;-0.60;99.90
55812;DHT22;41742;52.048;6.092;2022-11-20T09:55:36;-0.50;99.90
55812;DHT22;41742;52.048;6.092;2022-11-20T09:58:06;-0.50;99.90
55812;DHT22;41742;52.048;6.092;2022-11-20T10:00:32;-0.40;99.90
55812;DHT22;41742;52.048;6.092;2022-11-20T10:03:14;-0.30;99.90
55812;DHT22;41742;52.048;6.092;2022-11-20T10:05:45;-0.30;99.90
55812;DHT22;41742;52.048;6.092;2022-11-20T10:08:24;-0.20;99.90
55812;DHT22;41742;52.048;6.092;2022-11-20T10:14:00;-0.20;99.90
55812;DHT22;41742;52.048;6.092;2022-11-20T10:19:44;0.10;99.90
55812;DHT22;41742;52.048;6.092;2022-11-20T10:22:40;0.10;99.90
55812;DHT22;41742;52.048;6.092;2022-11-20T10:25:16;0.20;99.90
55812;DHT22;41742;52.048;6.092;2022-11-20T10:30:31;0.20;99.90
55812;DHT22;41742;52.048;6.092;2022-11-20T10:33:05;0.30;99.90
55812;DHT22;41742;52.048;6.092;2022-11-20T10:35:39;0.40;99.90
55812;DHT22;41742;52.048;6.092;2022-11-20T10:38:20;0.50;99.90
55812;DHT22;41742;52.048;6.092;2022-11-20T10:40:52;0.50;99.90
55812;DHT22;41742;52.048;6.092;2022-11-20T10:43:23;0.60;99.90
55812;DHT22;41742;52.048;6.092;2022-11-20T10:46:01;0.70;99.90
55812;DHT22;41742;52.048;6.092;2022-11-20T10:48:31;0.80;99.90
55812;DHT22;41742;52.048;6.092;2022-11-20T10:51:15;0.80;99.90
55812;DHT22;41742;52.048;6.092;2022-11-20T10:56:47;0.90;99.90
55812;DHT22;41742;52.048;6.092;2022-11-20T11:01:57;1.00;99.90
55812;DHT22;41742;52.048;6.092;2022-11-20T11:07:09;1.00;99.90
55812;DHT22;41742;52.048;6.092;2022-11-20T11:09:42;1.00;99.90
55812;DHT22;41742;52.048;6.092;2022-11-20T11:12:09;1.10;99.90
55812;DHT22;41742;52.048;6.092;2022-11-20T11:14:52;1.20;99.90
55812;DHT22;41742;52.048;6.092;2022-11-20T11:17:30;1.30;99.90
55812;DHT22;41742;52.048;6.092;2022-11-20T11:20:16;1.30;99.90
55812;DHT22;41742;52.048;6.092;2022-11-20T11:22:53;1.30;99.90
55812;DHT22;41742;52.048;6.092;2022-11-20T11:25:21;1.30;99.90
55812;DHT22;41742;52.048;6.092;2022-11-20T11:27:48;1.30;99.90
55812;DHT22;41742;52.048;6.092;2022-11-20T11:30:16;1.30;99.90
55812;DHT22;41742;52.048;6.092;2022-11-20T11:32:43;1.30;99.90
55812;DHT22;41742;52.048;6.092;2022-11-20T11:35:28;1.30;99.90
55812;DHT22;41742;52.048;6.092;2022-11-20T11:38:02;1.40;99.90
55812;DHT22;41742;52.048;6.092;2022-11-20T11:40:31;1.40;99.90
55812;DHT22;41742;52.048;6.092;2022-11-20T11:43:01;1.40;99.90
55812;DHT22;41742;52.048;6.092;2022-11-20T11:45:28;1.40;99.90
55812;DHT22;41742;52.048;6.092;2022-11-20T11:47:56;1.40;99.90
55812;DHT22;41742;52.048;6.092;2022-11-20T11:50:24;1.40;99.90
55812;DHT22;41742;52.048;6.092;2022-11-20T11:56:02;1.50;99.90
55812;DHT22;41742;52.048;6.092;2022-11-20T11:58:34;1.60;99.90
55812;DHT22;41742;52.048;6.092;2022-11-20T12:04:13;1.70;99.90
55812;DHT22;41742;52.048;6.092;2022-11-20T12:06:36;1.80;99.90
55812;DHT22;41742;52.048;6.092;2022-11-20T12:09:08;1.90;99.90
55812;DHT22;41742;52.048;6.092;2022-11-20T12:14:21;1.90;99.90
55812;DHT22;41742;52.048;6.092;2022-11-20T12:16:52;1.90;99.90
55812;DHT22;41742;52.048;6.092;2022-11-20T12:19:19;1.90;99.90
55812;DHT22;41742;52.048;6.092;2022-11-20T12:30:25;1.90;99.90
55812;DHT22;41742;52.048;6.092;2022-11-20T12:44:16;2.00;99.90
55812;DHT22;41742;52.048;6.092;2022-11-20T12:47:28;2.00;99.90
55812;DHT22;41742;52.048;6.092;2022-11-20T12:50:14;1.90;99.90
55812;DHT22;41742;52.048;6.092;2022-11-20T12:52:51;2.10;99.90
55812;DHT22;41742;52.048;6.092;2022-11-20T13:01:20;2.10;99.90
55812;DHT22;41742;52.048;6.092;2022-11-20T13:04:49;2.10;99.90
55812;DHT22;41742;52.048;6.092;2022-11-20T13:07:16;2.20;99.90
55812;DHT22;41742;52.048;6.092;2022-11-20T13:09:47;2.20;99.90
55812;DHT22;41742;52.048;6.092;2022-11-20T13:12:36;2.20;99.90
55812;DHT22;41742;52.048;6.092;2022-11-20T13:17:51;2.20;99.90
55812;DHT22;41742;52.048;6.092;2022-11-20T13:20:19;2.20;99.90
55812;DHT22;41742;52.048;6.092;2022-11-20T13:22:51;2.10;99.90
55812;DHT22;41742;52.048;6.092;2022-11-20T13:27:52;2.10;99.90
55812;DHT22;41742;52.048;6.092;2022-11-20T13:30:28;2.10;99.90
55812;DHT22;41742;52.048;6.092;2022-11-20T13:32:57;2.10;99.90
55812;DHT22;41742;52.048;6.092;2022-11-20T13:38:07;2.20;99.90
55812;DHT22;41742;52.048;6.092;2022-11-20T13:40:36;2.20;99.90
55812;DHT22;41742;52.048;6.092;2022-11-20T13:45:58;2.20;99.90
55812;DHT22;41742;52.048;6.092;2022-11-20T13:48:28;2.10;99.90
55812;DHT22;41742;52.048;6.092;2022-11-20T13:56:25;2.20;99.90
55812;DHT22;41742;52.048;6.092;2022-11-20T14:01:45;2.10;99.90
55812;DHT22;41742;52.048;6.092;2022-11-20T14:04:17;2.20;99.90
55812;DHT22;41742;52.048;6.092;2022-11-20T14:06:46;2.20;99.90
55812;DHT22;41742;52.048;6.092;2022-11-20T14:09:24;2.20;99.90
55812;DHT22;41742;52.048;6.092;2022-11-20T14:11:50;2.20;99.90
55812;DHT22;41742;52.048;6.092;2022-11-20T14:14:21;2.30;99.90
55812;DHT22;41742;52.048;6.092;2022-11-20T14:16:47;2.30;99.90
55812;DHT22;41742;52.048;6.092;2022-11-20T14:21:48;2.30;99.90
55812;DHT22;41742;52.048;6.092;2022-11-20T14:24:22;2.20;99.90
55812;DHT22;41742;52.048;6.092;2022-11-20T14:26:49;2.30;99.90
55812;DHT22;41742;52.048;6.092;2022-11-20T14:29:37;2.20;99.90
55812;DHT22;41742;52.048;6.092;2022-11-20T14:32:03;2.20;99.90
55812;DHT22;41742;52.048;6.092;2022-11-20T14:34:31;2.20;99.90
55812;DHT22;41742;52.048;6.092;2022-11-20T14:37:00;2.20;99.90
55812;DHT22;41742;52.048;6.092;2022-11-20T14:39:37;2.30;99.90
55812;DHT22;41742;52.048;6.092;2022-11-20T14:42:11;2.20;99.90
55812;DHT22;41742;52.048;6.092;2022-11-20T14:44:39;2.20;99.90
55812;DHT22;41742;52.048;6.092;2022-11-20T14:47:05;2.20;99.90
55812;DHT22;41742;52.048;6.092;2022-11-20T14:49:31;2.20;99.90
55812;DHT22;41742;52.048;6.092;2022-11-20T14:52:02;2.30;99.90
55812;DHT22;41742;52.048;6.092;2022-11-20T14:54:43;2.30;99.90
55812;DHT22;41742;52.048;6.092;2022-11-20T14:57:27;2.20;99.90
55812;DHT22;41742;52.048;6.092;2022-11-20T15:00:19;2.30;99.90
55812;DHT22;41742;52.048;6.092;2022-11-20T15:02:48;2.20;99.90
55812;DHT22;41742;52.048;6.092;2022-11-20T15:05:17;2.20;99.90
55812;DHT22;41742;52.048;6.092;2022-11-20T15:07:46;2.20;99.90
55812;DHT22;41742;52.048;6.092;2022-11-20T15:10:21;2.30;99.90
55812;DHT22;41742;52.048;6.092;2022-11-20T15:12:55;2.20;99.90
55812;DHT22;41742;52.048;6.092;2022-11-20T15:18:14;2.30;99.90
55812;DHT22;41742;52.048;6.092;2022-11-20T15:20:40;2.30;99.90
55812;DHT22;41742;52.048;6.092;2022-11-20T15:23:16;2.30;99.90
55812;DHT22;41742;52.048;6.092;2022-11-20T15:25:43;2.30;99.90
55812;DHT22;41742;52.048;6.092;2022-11-20T15:28:33;2.30;99.90
55812;DHT22;41742;52.048;6.092;2022-11-20T15:30:59;2.30;99.90
55812;DHT22;41742;52.048;6.092;2022-11-20T15:33:25;2.30;99.90
55812;DHT22;41742;52.048;6.092;2022-11-20T15:35:51;2.30;99.90
55812;DHT22;41742;52.048;6.092;2022-11-20T15:38:16;2.30;99.90
55812;DHT22;41742;52.048;6.092;2022-11-20T15:40:42;2.30;99.90
55812;DHT22;41742;52.048;6.092;2022-11-20T15:43:08;2.40;99.90
55812;DHT22;41742;52.048;6.092;2022-11-20T15:45:44;2.40;99.90
55812;DHT22;41742;52.048;6.092;2022-11-20T15:48:21;2.40;99.90
55812;DHT22;41742;52.048;6.092;2022-11-20T15:53:20;2.40;99.90
55812;DHT22;41742;52.048;6.092;2022-11-20T15:55:45;2.30;99.90
55812;DHT22;41742;52.048;6.092;2022-11-20T15:58:11;2.40;99.90
55812;DHT22;41742;52.048;6.092;2022-11-20T16:00:37;2.40;99.90
55812;DHT22;41742;52.048;6.092;2022-11-20T16:03:02;2.40;99.90
55812;DHT22;41742;52.048;6.092;2022-11-20T16:05:29;2.50;99.90
55812;DHT22;41742;52.048;6.092;2022-11-20T16:07:54;2.50;99.90
55812;DHT22;41742;52.048;6.092;2022-11-20T16:10:20;2.50;99.90
55812;DHT22;41742;52.048;6.092;2022-11-20T16:12:45;2.40;99.90
55812;DHT22;41742;52.048;6.092;2022-11-20T16:15:30;2.50;99.90
55812;DHT22;41742;52.048;6.092;2022-11-20T16:18:16;2.50;99.90
55812;DHT22;41742;52.048;6.092;2022-11-20T16:20:42;2.50;99.90
55812;DHT22;41742;52.048;6.092;2022-11-20T16:23:08;2.50;99.90
55812;DHT22;41742;52.048;6.092;2022-11-20T16:25:34;2.50;99.90
55812;DHT22;41742;52.048;6.092;2022-11-20T16:27:59;2.50;99.90
55812;DHT22;41742;52.048;6.092;2022-11-20T16:30:26;2.50;99.90
55812;DHT22;41742;52.048;6.092;2022-11-20T16:32:52;2.40;99.90
55812;DHT22;41742;52.048;6.092;2022-11-20T16:35:17;2.50;99.90
55812;DHT22;41742;52.048;6.092;2022-11-20T16:37:43;2.50;99.90
55812;DHT22;41742;52.048;6.092;2022-11-20T16:40:10;2.40;99.90
55812;DHT22;41742;52.048;6.092;2022-11-20T16:42:36;2.50;99.90
55812;DHT22;41742;52.048;6.092;2022-11-20T16:45:04;2.50;99.90
55812;DHT22;41742;52.048;6.092;2022-11-20T16:47:33;2.40;99.90
55812;DHT22;41742;52.048;6.092;2022-11-20T16:50:00;2.40;99.90
55812;DHT22;41742;52.048;6.092;2022-11-20T16:52:25;2.40;99.90
55812;DHT22;41742;52.048;6.092;2022-11-20T16:54:51;2.40;99.90
55812;DHT22;41742;52.048;6.092;2022-11-20T16:57:16;2.40;99.90
55812;DHT22;41742;52.048;6.092;2022-11-20T16:59:42;2.40;99.90
55812;DHT22;41742;52.048;6.092;2022-11-20T17:02:09;2.40;99.90
55812;DHT22;41742;52.048;6.092;2022-11-20T17:04:35;2.50;99.90
55812;DHT22;41742;52.048;6.092;2022-11-20T17:07:01;2.50;99.90
55812;DHT22;41742;52.048;6.092;2022-11-20T17:09:27;2.50;99.90
55812;DHT22;41742;52.048;6.092;2022-11-20T17:11:53;2.50;99.90
55812;DHT22;41742;52.048;6.092;2022-11-20T17:14:19;2.50;99.90
55812;DHT22;41742;52.048;6.092;2022-11-20T17:16:44;2.50;99.90
55812;DHT22;41742;52.048;6.092;2022-11-20T17:19:10;2.40;99.90
55812;DHT22;41742;52.048;6.092;2022-11-20T17:21:36;2.50;99.90
55812;DHT22;41742;52.048;6.092;2022-11-20T17:24:05;2.40;99.90
55812;DHT22;41742;52.048;6.092;2022-11-20T17:26:31;2.40;99.90
55812;DHT22;41742;52.048;6.092;2022-11-20T17:28:59;2.50;99.90
55812;DHT22;41742;52.048;6.092;2022-11-20T17:31:26;2.50;99.90
55812;DHT22;41742;52.048;6.092;2022-11-20T17:33:52;2.50;99.90
55812;DHT22;41742;52.048;6.092;2022-11-20T17:36:19;2.50;99.90
55812;DHT22;41742;52.048;6.092;2022-11-20T17:38:45;2.50;99.90